Time;durP1;ratioP1;P1;durP2;ratioP2;P2;SDS_P1;SDS_P2;PMS_P1;PMS_P2;Temp;Humidity;BMP_temperature;BMP_pressure;BME280_temperature;BME280_humidity;BME280_pressure;Samples;Min_cycle;Max_cycle;Signal;HPM_P1;HPM_P2
2023/03/31 00:02:15;;;;;;;12.52;1.67;;;11.70;97.10;;;;;;5058822;28;20047;-75
2023/03/31 00:04:44;;;;;;;7.72;1.75;;;11.70;97.40;;;;;;5075359;28;20054;-75
2023/03/31 00:07:15;;;;;;;7.43;1.40;;;11.70;97.50;;;;;;5076474;28;20017;-75
2023/03/31 00:09:44;;;;;;;7.38;1.10;;;11.70;97.60;;;;;;5076284;28;20031;-75
2023/03/31 00:12:12;;;;;;;2.97;1.20;;;11.70;97.40;;;;;;5076211;28;20401;-75
2023/03/31 00:14:37;;;;;;;5.63;1.27;;;11.70;97.50;;;;;;5076172;28;20033;-75
2023/03/31 00:17:03;;;;;;;4.32;1.52;;;11.70;97.50;;;;;;5076099;28;20092;-75
2023/03/31 00:19:32;;;;;;;3.40;1.42;;;11.70;97.50;;;;;;5076060;28;20058;-75
2023/03/31 00:22:00;;;;;;;3.05;1.80;;;11.70;97.60;;;;;;5076017;28;20021;-75
2023/03/31 00:24:27;;;;;;;5.55;1.60;;;11.70;97.60;;;;;;5058777;28;20033;-76
2023/03/31 00:26:53;;;;;;;4.80;1.98;;;11.80;97.70;;;;;;5075880;28;20032;-75
2023/03/31 00:29:19;;;;;;;9.48;1.38;;;11.80;97.70;;;;;;5075904;28;20041;-75
2023/03/31 00:31:45;;;;;;;4.15;1.40;;;11.80;97.90;;;;;;5074943;28;20033;-75
2023/03/31 00:34:10;;;;;;;4.88;1.67;;;11.80;98.10;;;;;;5058113;28;20033;-75
2023/03/31 00:36:46;;;;;;;5.13;1.50;;;11.80;98.20;;;;;;5074808;28;20028;-75
2023/03/31 00:39:12;;;;;;;4.13;1.60;;;11.80;98.40;;;;;;5075049;28;20036;-75
2023/03/31 00:41:39;;;;;;;6.03;1.58;;;11.80;98.60;;;;;;5074676;28;20032;-75
2023/03/31 00:44:07;;;;;;;6.28;1.50;;;11.70;98.70;;;;;;5075446;28;20028;-75
2023/03/31 00:46:41;;;;;;;4.60;1.70;;;11.70;98.70;;;;;;5074579;28;20029;-75
2023/03/31 00:49:29;;;;;;;5.43;1.80;;;11.70;98.90;;;;;;5075544;28;20029;-75
2023/03/31 00:52:01;;;;;;;3.50;1.52;;;11.80;99.00;;;;;;5075536;28;20359;-75
2023/03/31 00:54:27;;;;;;;4.75;1.73;;;11.70;99.10;;;;;;5075505;28;20049;-76
2023/03/31 00:56:57;;;;;;;4.25;1.65;;;11.70;99.40;;;;;;5074437;28;20097;-75
2023/03/31 00:59:27;;;;;;;4.47;1.50;;;11.70;99.30;;;;;;5075352;28;20025;-75
2023/03/31 01:01:58;;;;;;;6.07;1.60;;;11.70;99.30;;;;;;5075407;28;20021;-76
2023/03/31 01:04:24;;;;;;;4.68;1.40;;;11.70;99.40;;;;;;5074197;28;20021;-75
2023/03/31 01:07:16;;;;;;;5.80;2.15;;;11.60;99.50;;;;;;5074303;28;20049;-76
2023/03/31 01:09:46;;;;;;;6.13;1.65;;;11.80;99.30;;;;;;5065996;28;20064;-75
2023/03/31 01:12:14;;;;;;;4.85;1.30;;;11.80;99.10;;;;;;5075137;28;20036;-75
2023/03/31 01:14:41;;;;;;;3.17;1.20;;;11.80;99.10;;;;;;5074187;28;20025;-76
2023/03/31 01:17:08;;;;;;;3.15;1.05;;;11.80;99.00;;;;;;5074948;28;20482;-75
2023/03/31 01:19:52;;;;;;;5.85;1.38;;;11.80;99.00;;;;;;5074118;28;20021;-76
2023/03/31 01:22:44;;;;;;;6.28;1.63;;;11.80;98.90;;;;;;5074943;28;20363;-75
2023/03/31 01:25:28;;;;;;;5.22;1.67;;;11.80;98.90;;;;;;5074873;28;20021;-75
2023/03/31 01:28:01;;;;;;;4.03;1.30;;;11.80;99.00;;;;;;5073800;28;20033;-75
2023/03/31 01:30:57;;;;;;;4.57;1.60;;;11.80;99.00;;;;;;5074767;28;20021;-75
2023/03/31 01:34:22;;;;;;;5.00;1.10;;;11.70;99.10;;;;;;5074649;28;20036;-75
2023/03/31 01:37:10;;;;;;;5.95;1.25;;;11.60;99.40;;;;;;4977032;28;20590;-76
2023/03/31 01:39:38;;;;;;;3.72;1.10;;;11.60;99.50;;;;;;4993863;28;20023;-75
2023/03/31 01:42:34;;;;;;;2.55;1.02;;;11.70;99.30;;;;;;5056602;28;20067;-76
2023/03/31 01:45:37;;;;;;;6.75;1.27;;;11.60;99.40;;;;;;5073292;28;20041;-75
2023/03/31 01:48:07;;;;;;;4.20;1.45;;;11.60;99.70;;;;;;5074386;28;20032;-75
2023/03/31 01:50:58;;;;;;;4.40;1.33;;;11.60;99.90;;;;;;5074410;28;20048;-75
2023/03/31 01:53:24;;;;;;;3.92;0.98;;;11.60;99.90;;;;;;5063108;28;20036;-75
2023/03/31 01:56:23;;;;;;;2.50;0.80;;;11.60;99.90;;;;;;5074203;28;20029;-75
2023/03/31 01:59:00;;;;;;;6.53;1.20;;;11.60;99.90;;;;;;5074174;28;20032;-75
2023/03/31 02:01:55;;;;;;;3.72;1.05;;;11.50;99.90;;;;;;5073188;28;20052;-74
2023/03/31 02:04:35;;;;;;;3.90;1.45;;;11.50;99.90;;;;;;5044818;28;20092;-75
2023/03/31 02:07:13;;;;;;;4.65;1.30;;;11.50;99.90;;;;;;5073134;28;20017;-74
2023/03/31 02:09:43;;;;;;;2.03;0.77;;;11.50;99.90;;;;;;5074008;28;20029;-75
2023/03/31 02:12:11;;;;;;;4.32;1.10;;;11.50;99.90;;;;;;5073535;28;20040;-75
2023/03/31 02:14:40;;;;;;;3.72;0.88;;;11.50;99.90;;;;;;5073908;28;20028;-74
2023/03/31 02:17:09;;;;;;;2.80;0.70;;;11.50;99.90;;;;;;5072810;28;20021;-75
2023/03/31 02:19:38;;;;;;;3.15;1.05;;;11.50;99.90;;;;;;5072849;28;20036;-74
2023/03/31 02:22:06;;;;;;;4.13;1.02;;;11.50;99.90;;;;;;5072815;28;20082;-75
2023/03/31 02:24:35;;;;;;;4.95;1.48;;;11.50;99.90;;;;;;5072732;28;20044;-74
2023/03/31 02:27:17;;;;;;;5.65;1.10;;;11.50;99.90;;;;;;5073620;28;20052;-74
2023/03/31 02:29:43;;;;;;;7.10;1.50;;;11.50;99.90;;;;;;5073741;28;20036;-75
2023/03/31 02:32:20;;;;;;;5.95;1.25;;;11.50;99.90;;;;;;5072619;28;20382;-75
2023/03/31 02:34:46;;;;;;;4.60;1.63;;;11.50;99.90;;;;;;5072838;28;20025;-74
2023/03/31 02:37:13;;;;;;;6.07;1.83;;;11.50;99.90;;;;;;5072473;28;20040;-74
2023/03/31 02:39:41;;;;;;;5.53;1.80;;;11.50;99.90;;;;;;5072551;28;20025;-74
2023/03/31 02:42:07;;;;;;;4.28;1.17;;;11.60;99.90;;;;;;5073415;28;20029;-74
2023/03/31 02:44:35;;;;;;;10.95;1.98;;;11.50;99.90;;;;;;5072229;28;20064;-74
2023/03/31 02:47:10;;;;;;;6.15;1.25;;;11.50;99.90;;;;;;5073474;28;20017;-75
2023/03/31 02:49:38;;;;;;;9.95;1.60;;;11.60;99.90;;;;;;5072534;28;20021;-75
2023/03/31 02:52:18;;;;;;;10.40;1.85;;;11.50;99.90;;;;;;5073455;28;20043;-74
2023/03/31 02:54:47;;;;;;;13.23;2.28;;;11.60;99.90;;;;;;5073302;28;20037;-74
2023/03/31 02:57:32;;;;;;;5.57;1.98;;;11.60;99.90;;;;;;5073255;28;20054;-74
2023/03/31 03:00:23;;;;;;;3.78;1.42;;;11.60;99.90;;;;;;5073281;28;20081;-74
2023/03/31 03:03:26;;;;;;;10.43;1.92;;;11.60;99.90;;;;;;5072243;28;20025;-75
2023/03/31 03:06:05;;;;;;;7.32;1.85;;;11.60;99.90;;;;;;5073078;28;20029;-75
2023/03/31 03:09:13;;;;;;;9.38;1.80;;;11.60;99.90;;;;;;5073193;28;20028;-74
2023/03/31 03:11:52;;;;;;;6.30;1.52;;;11.60;99.90;;;;;;5073117;28;20108;-74
2023/03/31 03:14:25;;;;;;;4.97;1.50;;;11.60;99.90;;;;;;5073098;28;20044;-75
2023/03/31 03:17:05;;;;;;;9.60;1.75;;;11.60;99.90;;;;;;5072131;28;20093;-74
2023/03/31 03:19:31;;;;;;;6.28;1.60;;;11.60;99.90;;;;;;5073084;28;20021;-75
2023/03/31 03:21:57;;;;;;;5.32;1.50;;;11.70;99.90;;;;;;5073016;28;20541;-75
2023/03/31 03:24:29;;;;;;;11.65;2.13;;;11.60;99.90;;;;;;5056337;28;20047;-75
2023/03/31 03:26:55;;;;;;;8.20;2.15;;;11.60;99.90;;;;;;5077170;28;20091;-75
2023/03/31 03:29:20;;;;;;;7.82;2.55;;;11.60;99.90;;;;;;5059371;28;20028;-75
2023/03/31 03:31:46;;;;;;;6.53;1.50;;;11.70;99.90;;;;;;5076948;28;20029;-75
2023/03/31 03:34:12;;;;;;;5.57;1.60;;;11.60;99.90;;;;;;5076905;28;20037;-74
2023/03/31 03:36:38;;;;;;;6.05;1.60;;;11.70;99.90;;;;;;5077006;28;20029;-74
2023/03/31 03:39:06;;;;;;;6.00;1.55;;;11.70;99.90;;;;;;5075927;28;20025;-75
2023/03/31 03:41:32;;;;;;;4.32;1.60;;;11.60;99.90;;;;;;5075908;28;20033;-75
2023/03/31 03:43:59;;;;;;;8.77;1.90;;;11.60;99.90;;;;;;5075442;28;20025;-75
2023/03/31 03:46:25;;;;;;;12.48;2.53;;;11.60;99.90;;;;;;5076763;28;20444;-75
2023/03/31 03:48:51;;;;;;;6.38;1.45;;;11.60;99.90;;;;;;5075640;28;20029;-75
2023/03/31 03:51:16;;;;;;;6.55;1.35;;;11.60;99.90;;;;;;5075773;28;20092;-75
2023/03/31 03:53:42;;;;;;;6.30;1.70;;;11.60;99.90;;;;;;5075649;28;20025;-74
2023/03/31 03:56:08;;;;;;;7.35;1.70;;;11.50;99.90;;;;;;5076509;28;20075;-74
2023/03/31 03:58:34;;;;;;;7.78;1.67;;;11.50;99.90;;;;;;5075542;28;20080;-75
2023/03/31 04:01:01;;;;;;;7.55;1.48;;;11.50;99.90;;;;;;5075502;28;20027;-75
2023/03/31 04:03:26;;;;;;;4.13;2.25;;;11.50;99.90;;;;;;5076534;28;20080;-75
2023/03/31 04:05:52;;;;;;;6.20;1.30;;;11.50;99.90;;;;;;5076286;28;20029;-74
2023/03/31 04:08:18;;;;;;;7.53;1.50;;;11.60;99.90;;;;;;5075275;28;20029;-75
2023/03/31 04:10:48;;;;;;;7.35;1.70;;;11.60;99.90;;;;;;5058670;28;20033;-75
2023/03/31 04:13:15;;;;;;;6.43;1.67;;;11.50;99.90;;;;;;5058535;28;20478;-74
2023/03/31 04:15:41;;;;;;;5.45;1.42;;;11.60;99.90;;;;;;5075234;28;20021;-74
2023/03/31 04:18:09;;;;;;;7.00;1.42;;;11.50;99.90;;;;;;5075131;28;20025;-74
2023/03/31 04:20:38;;;;;;;5.57;1.38;;;11.60;99.90;;;;;;5076098;28;20393;-74
2023/03/31 04:23:08;;;;;;;6.28;1.45;;;11.60;99.90;;;;;;5059047;28;20036;-74
2023/03/31 04:25:37;;;;;;;5.95;1.67;;;11.60;99.90;;;;;;5075997;28;20029;-75
2023/03/31 04:28:05;;;;;;;5.28;1.50;;;11.60;99.90;;;;;;5075922;28;20025;-74
2023/03/31 04:30:31;;;;;;;5.40;1.30;;;11.60;99.90;;;;;;5075917;28;20021;-75
2023/03/31 04:32:59;;;;;;;5.57;1.65;;;11.60;99.90;;;;;;5075786;28;20025;-74
2023/03/31 04:35:37;;;;;;;6.80;1.50;;;11.60;99.90;;;;;;5075415;28;20389;-74
2023/03/31 04:38:03;;;;;;;2.88;1.15;;;11.60;99.90;;;;;;5074779;28;20021;-75
2023/03/31 04:40:28;;;;;;;7.43;1.30;;;11.60;99.90;;;;;;5075828;28;20053;-75
2023/03/31 04:42:54;;;;;;;5.35;1.55;;;11.50;99.90;;;;;;5074724;28;20048;-74
2023/03/31 04:45:19;;;;;;;5.32;1.05;;;11.50;99.90;;;;;;5074622;28;20056;-75
2023/03/31 04:47:45;;;;;;;7.30;1.20;;;11.50;99.90;;;;;;5073538;28;20033;-74
2023/03/31 04:50:11;;;;;;;2.67;1.05;;;11.50;99.90;;;;;;5074316;28;20052;-75
2023/03/31 04:52:37;;;;;;;5.25;1.60;;;11.60;99.90;;;;;;5073606;28;20025;-75
2023/03/31 04:55:03;;;;;;;5.38;1.73;;;11.50;99.90;;;;;;5073403;28;20025;-75
2023/03/31 04:57:29;;;;;;;4.82;1.08;;;11.60;99.90;;;;;;5073296;28;20027;-74
2023/03/31 04:59:54;;;;;;;6.25;1.10;;;11.60;99.90;;;;;;5073078;28;20477;-75
2023/03/31 05:02:23;;;;;;;4.72;1.23;;;11.70;99.90;;;;;;5074185;28;20057;-75
2023/03/31 05:04:50;;;;;;;3.13;1.30;;;11.60;99.90;;;;;;5074078;28;20092;-75
2023/03/31 05:07:16;;;;;;;8.98;1.30;;;11.60;99.90;;;;;;5074104;28;20105;-75
2023/03/31 05:09:42;;;;;;;6.40;1.30;;;11.60;99.90;;;;;;5074113;28;20052;-75
2023/03/31 05:12:08;;;;;;;8.88;1.52;;;11.50;99.90;;;;;;5074051;28;20470;-75
2023/03/31 05:14:33;;;;;;;6.47;1.30;;;11.60;99.90;;;;;;5073992;28;20029;-75
2023/03/31 05:16:59;;;;;;;3.90;1.42;;;11.60;99.90;;;;;;5073978;28;20040;-75
2023/03/31 05:19:24;;;;;;;7.47;1.55;;;11.60;99.90;;;;;;5056398;28;20025;-74
2023/03/31 05:21:50;;;;;;;5.05;1.17;;;11.60;99.90;;;;;;5072942;28;20536;-74
2023/03/31 05:24:16;;;;;;;3.40;0.85;;;11.60;99.90;;;;;;5056285;28;20033;-74
2023/03/31 05:26:47;;;;;;;5.15;1.00;;;11.50;99.90;;;;;;5073784;28;20081;-75
2023/03/31 05:29:12;;;;;;;5.57;1.15;;;11.60;99.90;;;;;;5073875;28;20025;-75
2023/03/31 05:31:38;;;;;;;8.95;1.60;;;11.60;99.90;;;;;;5073779;28;20021;-74
2023/03/31 05:34:05;;;;;;;4.47;1.50;;;11.50;99.90;;;;;;5073708;28;20025;-74
2023/03/31 05:36:31;;;;;;;5.38;1.50;;;11.40;99.90;;;;;;5072773;28;20100;-75
2023/03/31 05:38:56;;;;;;;3.88;1.27;;;11.40;99.90;;;;;;5072701;28;20036;-74
2023/03/31 05:41:22;;;;;;;2.05;0.93;;;11.30;99.90;;;;;;5073583;28;20055;-74
2023/03/31 05:43:48;;;;;;;1.80;0.80;;;11.30;99.90;;;;;;5055425;28;1160461;-77
2023/03/31 05:46:14;;;;;;;2.33;0.85;;;11.20;99.90;;;;;;5074241;28;20056;-74
2023/03/31 05:48:40;;;;;;;2.55;1.10;;;11.20;99.90;;;;;;5056157;28;20040;-75
2023/03/31 05:51:05;;;;;;;4.97;0.90;;;11.20;99.90;;;;;;5073450;28;20024;-74
2023/03/31 05:53:32;;;;;;;3.88;1.00;;;11.20;99.90;;;;;;5073332;28;20028;-74
2023/03/31 05:56:03;;;;;;;3.97;1.00;;;11.20;99.90;;;;;;5056719;28;20049;-74
2023/03/31 05:58:29;;;;;;;3.55;1.35;;;11.20;99.90;;;;;;5073285;28;20059;-74
2023/03/31 06:01:10;;;;;;;5.10;1.45;;;11.20;99.90;;;;;;5074306;28;20033;-74
2023/03/31 06:03:39;;;;;;;2.97;0.93;;;11.30;99.90;;;;;;5073086;28;20025;-74
2023/03/31 06:06:06;;;;;;;2.88;0.95;;;11.20;99.90;;;;;;5073101;28;20036;-74
2023/03/31 06:08:33;;;;;;;4.00;1.15;;;11.20;99.90;;;;;;5074001;28;20013;-74
2023/03/31 06:11:04;;;;;;;5.43;0.90;;;11.20;99.90;;;;;;5074025;28;20076;-75
2023/03/31 06:13:29;;;;;;;2.65;1.00;;;11.20;99.90;;;;;;5073995;28;20081;-75
2023/03/31 06:15:57;;;;;;;2.00;0.90;;;11.20;99.90;;;;;;5056389;28;20037;-74
2023/03/31 06:18:24;;;;;;;3.88;1.15;;;11.20;99.90;;;;;;5073858;28;20024;-74
2023/03/31 06:20:50;;;;;;;2.05;0.80;;;11.20;99.90;;;;;;5073812;28;20028;-74
2023/03/31 06:23:16;;;;;;;4.65;1.00;;;11.10;99.90;;;;;;5073741;28;20035;-75
2023/03/31 06:25:42;;;;;;;3.58;1.00;;;11.10;99.90;;;;;;5073657;28;20029;-74
2023/03/31 06:28:08;;;;;;;6.15;1.23;;;11.10;99.90;;;;;;5072693;28;20025;-74
2023/03/31 06:30:33;;;;;;;4.88;1.48;;;11.20;99.90;;;;;;5073687;28;20085;-74
2023/03/31 06:32:59;;;;;;;8.63;1.35;;;11.20;99.90;;;;;;5072737;28;20083;-75
2023/03/31 06:35:25;;;;;;;5.82;1.00;;;11.20;99.90;;;;;;5073565;28;20104;-74
2023/03/31 06:37:51;;;;;;;3.60;0.77;;;11.20;99.90;;;;;;5072533;28;20060;-75
2023/03/31 06:40:17;;;;;;;3.70;0.80;;;11.10;99.90;;;;;;5073495;28;20112;-74
2023/03/31 06:42:43;;;;;;;3.75;1.00;;;11.10;99.90;;;;;;5055863;28;20037;-74
2023/03/31 06:45:09;;;;;;;5.38;1.00;;;11.10;99.90;;;;;;5073149;28;20105;-74
2023/03/31 06:47:36;;;;;;;4.43;1.10;;;11.10;99.90;;;;;;5073347;28;20462;-75
2023/03/31 06:50:03;;;;;;;6.72;1.20;;;11.10;99.90;;;;;;5072404;28;20017;-74
2023/03/31 06:52:30;;;;;;;4.40;1.15;;;11.20;99.90;;;;;;5072381;28;20059;-74
2023/03/31 06:54:55;;;;;;;2.30;1.13;;;11.20;99.90;;;;;;5055551;28;20029;-75
2023/03/31 06:57:21;;;;;;;4.55;1.40;;;11.10;99.90;;;;;;5072274;28;20047;-75
2023/03/31 06:59:48;;;;;;;3.67;1.30;;;11.20;99.90;;;;;;5073107;28;20033;-74
2023/03/31 07:02:13;;;;;;;2.03;1.15;;;11.20;99.90;;;;;;5072355;28;20465;-75
2023/03/31 07:04:39;;;;;;;4.63;1.40;;;11.20;99.90;;;;;;5072182;28;20111;-74
2023/03/31 07:07:05;;;;;;;3.85;1.67;;;11.20;99.90;;;;;;5055517;28;20040;-75
2023/03/31 07:09:30;;;;;;;4.15;1.50;;;11.20;99.90;;;;;;5072165;28;20025;-74
2023/03/31 07:11:56;;;;;;;3.20;1.48;;;11.30;99.90;;;;;;5073070;28;20021;-75
2023/03/31 07:14:22;;;;;;;3.25;1.88;;;11.30;99.90;;;;;;5073045;28;20033;-75
2023/03/31 07:16:49;;;;;;;7.78;1.40;;;11.30;99.90;;;;;;5073013;28;20044;-75
2023/03/31 07:19:15;;;;;;;5.22;1.45;;;11.40;99.90;;;;;;5073042;28;20021;-76
2023/03/31 07:21:40;;;;;;;6.57;1.40;;;11.40;99.90;;;;;;5072042;28;20056;-75
2023/03/31 07:24:06;;;;;;;4.63;1.92;;;11.40;99.90;;;;;;5072885;28;20085;-76
2023/03/31 07:26:32;;;;;;;3.47;1.40;;;11.40;99.90;;;;;;5071962;28;20382;-76
2023/03/31 07:28:58;;;;;;;7.03;2.15;;;11.40;99.90;;;;;;5072910;28;20027;-75
2023/03/31 07:31:24;;;;;;;4.90;1.50;;;11.40;99.90;;;;;;5055350;28;20021;-75
2023/03/31 07:33:50;;;;;;;5.47;1.70;;;11.40;99.90;;;;;;5071861;28;20021;-75
2023/03/31 07:36:15;;;;;;;5.53;1.80;;;11.40;99.90;;;;;;5071811;28;20033;-75
2023/03/31 07:38:44;;;;;;;6.03;1.60;;;11.40;99.90;;;;;;5071826;28;20025;-75
2023/03/31 07:41:18;;;;;;;6.03;1.50;;;11.40;99.90;;;;;;5071803;28;20024;-75
2023/03/31 07:43:44;;;;;;;5.03;1.23;;;11.50;99.90;;;;;;5072816;28;20021;-75
2023/03/31 07:46:18;;;;;;;3.50;1.45;;;11.50;99.90;;;;;;5072624;28;20045;-75
2023/03/31 07:48:45;;;;;;;4.40;1.55;;;11.50;99.90;;;;;;5072798;28;20030;-75
2023/03/31 07:51:11;;;;;;;4.93;1.10;;;11.50;99.90;;;;;;5055354;28;20082;-75
2023/03/31 07:53:37;;;;;;;4.40;1.50;;;11.50;99.90;;;;;;5071775;28;20025;-75
2023/03/31 07:56:03;;;;;;;6.88;2.17;;;11.50;99.90;;;;;;5055087;28;20044;-75
2023/03/31 07:58:29;;;;;;;9.38;1.85;;;11.60;99.90;;;;;;5071695;28;20060;-75
2023/03/31 08:00:54;;;;;;;4.05;1.42;;;11.50;99.90;;;;;;5072759;28;20044;-75
2023/03/31 08:03:20;;;;;;;3.47;1.20;;;11.50;99.90;;;;;;5071769;28;20100;-76
2023/03/31 08:05:46;;;;;;;5.05;1.40;;;11.50;99.90;;;;;;5072537;28;20025;-75
2023/03/31 08:08:12;;;;;;;6.13;1.17;;;11.50;99.90;;;;;;5071705;28;20033;-75
2023/03/31 08:10:37;;;;;;;9.00;1.33;;;11.50;99.90;;;;;;5072973;28;20052;-75
2023/03/31 08:13:03;;;;;;;5.78;1.20;;;11.50;99.90;;;;;;5075330;28;20164;-75
2023/03/31 08:15:29;;;;;;;4.65;0.85;;;11.50;99.90;;;;;;5076225;28;20029;-76
2023/03/31 08:17:54;;;;;;;4.90;1.50;;;11.50;99.90;;;;;;5075407;28;20075;-74
2023/03/31 08:20:20;;;;;;;8.50;1.48;;;11.50;99.90;;;;;;5075193;28;20048;-76
2023/03/31 08:22:46;;;;;;;4.57;1.10;;;11.50;99.90;;;;;;5058406;28;20064;-75
2023/03/31 08:25:11;;;;;;;6.20;1.45;;;11.50;99.90;;;;;;5075091;28;20033;-74
2023/03/31 08:27:39;;;;;;;3.95;1.35;;;11.50;99.90;;;;;;5074930;28;20096;-76
2023/03/31 08:30:07;;;;;;;2.60;1.48;;;11.50;99.90;;;;;;5075960;28;20044;-75
2023/03/31 08:32:33;;;;;;;2.92;1.58;;;11.60;99.90;;;;;;5075928;28;20025;-75
2023/03/31 08:34:59;;;;;;;2.90;1.48;;;11.60;99.90;;;;;;5074958;28;20043;-75
2023/03/31 08:37:27;;;;;;;5.57;2.10;;;11.70;99.90;;;;;;5074877;28;20036;-75
2023/03/31 08:39:53;;;;;;;7.50;2.60;;;11.70;99.90;;;;;;5075754;28;20041;-75
2023/03/31 08:42:36;;;;;;;9.45;2.47;;;11.70;99.90;;;;;;5074787;28;20029;-75
2023/03/31 08:45:19;;;;;;;8.40;2.42;;;11.80;99.90;;;;;;5074444;28;20087;-75
2023/03/31 08:47:46;;;;;;;9.18;2.20;;;11.80;99.90;;;;;;5075861;28;20017;-75
2023/03/31 08:50:16;;;;;;;7.53;2.40;;;11.80;99.90;;;;;;5074730;28;20085;-76
2023/03/31 08:52:49;;;;;;;6.55;2.10;;;11.90;99.90;;;;;;5075586;28;20016;-75
2023/03/31 08:55:33;;;;;;;6.38;1.98;;;11.90;99.90;;;;;;5075532;28;20021;-75
2023/03/31 08:58:30;;;;;;;4.38;1.75;;;11.90;99.90;;;;;;5075494;28;20043;-75
2023/03/31 09:01:05;;;;;;;7.70;2.05;;;11.90;99.90;;;;;;5075412;28;20029;-75
2023/03/31 09:03:49;;;;;;;7.90;1.95;;;12.00;99.90;;;;;;5074414;28;20021;-76
2023/03/31 09:06:37;;;;;;;6.00;1.80;;;12.00;99.90;;;;;;5074292;28;20063;-75
2023/03/31 09:09:08;;;;;;;8.30;1.83;;;12.10;99.90;;;;;;5073467;28;20036;-75
2023/03/31 09:11:57;;;;;;;7.15;2.53;;;12.10;99.90;;;;;;5075269;28;20085;-75
2023/03/31 09:14:38;;;;;;;6.85;1.80;;;12.10;99.90;;;;;;5075137;28;20027;-75
2023/03/31 09:17:16;;;;;;;5.22;1.67;;;12.10;99.90;;;;;;5074335;28;20025;-75
2023/03/31 09:20:00;;;;;;;7.72;1.70;;;12.20;99.90;;;;;;5074111;28;20029;-76
2023/03/31 09:22:31;;;;;;;9.02;2.13;;;12.20;99.90;;;;;;5073799;28;20025;-75
2023/03/31 09:25:04;;;;;;;8.77;2.03;;;12.20;99.90;;;;;;5074902;28;20029;-75
2023/03/31 09:27:33;;;;;;;11.93;2.40;;;12.30;99.90;;;;;;5074918;28;20021;-75
2023/03/31 09:30:15;;;;;;;9.38;2.05;;;12.30;99.90;;;;;;5073791;28;20025;-75
2023/03/31 09:32:41;;;;;;;6.88;2.13;;;12.40;99.90;;;;;;5073778;28;20098;-75
2023/03/31 09:35:25;;;;;;;10.65;1.92;;;12.40;99.90;;;;;;5074759;28;20028;-75
2023/03/31 09:37:52;;;;;;;9.00;2.20;;;12.40;99.90;;;;;;5074697;28;20032;-76
2023/03/31 09:40:21;;;;;;;9.93;2.17;;;12.50;99.90;;;;;;5073658;28;20017;-75
2023/03/31 09:42:55;;;;;;;9.68;2.38;;;12.50;99.90;;;;;;5074532;28;20021;-76
2023/03/31 09:45:21;;;;;;;11.23;1.65;;;12.60;99.90;;;;;;5073308;28;20044;-75
2023/03/31 09:47:52;;;;;;;7.93;2.10;;;12.70;99.90;;;;;;5073527;28;20029;-75
2023/03/31 09:50:18;;;;;;;6.00;1.80;;;12.70;98.90;;;;;;5074492;28;20017;-75
2023/03/31 09:52:58;;;;;;;5.43;1.73;;;12.80;98.80;;;;;;5056802;28;20124;-75
2023/03/31 09:55:25;;;;;;;9.65;2.90;;;12.90;98.40;;;;;;5073360;28;20021;-75
2023/03/31 09:57:52;;;;;;;6.53;2.20;;;13.00;98.90;;;;;;5074377;28;20025;-75
2023/03/31 10:00:21;;;;;;;8.98;1.60;;;13.00;97.60;;;;;;5057029;28;20047;-76
2023/03/31 10:02:54;;;;;;;7.75;1.45;;;13.00;97.30;;;;;;5074174;28;20040;-75
2023/03/31 10:05:38;;;;;;;5.10;1.35;;;13.00;96.40;;;;;;5074111;28;20025;-76
2023/03/31 10:08:10;;;;;;;7.95;1.70;;;13.00;95.80;;;;;;5074070;28;20052;-75
2023/03/31 10:10:37;;;;;;;4.38;1.40;;;13.00;95.70;;;;;;5074035;28;20029;-75
2023/03/31 10:13:08;;;;;;;7.25;1.08;;;13.00;95.60;;;;;;5073991;28;20025;-75
2023/03/31 10:15:37;;;;;;;3.95;1.15;;;13.00;95.40;;;;;;5074028;28;20032;-75
2023/03/31 10:18:02;;;;;;;7.47;1.63;;;13.00;95.70;;;;;;5072915;28;20047;-75
2023/03/31 10:20:41;;;;;;;10.52;1.73;;;13.00;95.50;;;;;;5056197;28;20049;-75
2023/03/31 10:23:25;;;;;;;1.60;0.88;;;13.00;95.40;;;;;;5072918;28;20032;-75
2023/03/31 10:25:51;;;;;;;6.07;0.90;;;13.00;95.20;;;;;;5072702;28;20021;-75
2023/03/31 10:28:20;;;;;;;9.48;1.58;;;13.00;95.60;;;;;;5073606;28;20017;-75
2023/03/31 10:31:00;;;;;;;5.03;1.13;;;13.00;96.00;;;;;;5073664;28;20081;-75
2023/03/31 10:33:28;;;;;;;6.75;1.55;;;13.10;95.70;;;;;;5073315;28;20021;-74
2023/03/31 10:36:22;;;;;;;4.88;1.30;;;13.20;95.20;;;;;;5072636;28;20021;-76
2023/03/31 10:38:50;;;;;;;9.40;1.98;;;13.20;94.70;;;;;;5072963;28;20033;-75
2023/03/31 10:41:28;;;;;;;8.25;1.58;;;13.20;94.70;;;;;;5073536;28;20025;-76
2023/03/31 10:43:58;;;;;;;6.30;1.25;;;13.20;94.30;;;;;;5073234;28;20033;-75
2023/03/31 10:46:48;;;;;;;4.25;1.65;;;13.20;93.90;;;;;;5072473;28;20079;-75
2023/03/31 10:49:38;;;;;;;5.60;0.88;;;13.20;94.10;;;;;;5073421;28;20017;-75
2023/03/31 10:52:19;;;;;;;4.90;1.30;;;13.10;93.20;;;;;;5058152;28;20097;-76
2023/03/31 10:54:51;;;;;;;4.75;0.85;;;13.10;94.60;;;;;;5072369;28;20041;-75
2023/03/31 10:57:20;;;;;;;7.20;1.58;;;13.10;93.60;;;;;;5073376;28;20088;-75
2023/03/31 11:00:11;;;;;;;7.05;1.13;;;13.20;93.60;;;;;;5073227;28;20020;-75
2023/03/31 11:02:56;;;;;;;4.88;1.58;;;13.30;93.80;;;;;;5073274;28;20017;-76
2023/03/31 11:05:42;;;;;;;6.32;1.58;;;13.40;93.10;;;;;;5073116;28;20035;-75
2023/03/31 11:08:23;;;;;;;4.78;1.23;;;13.40;93.00;;;;;;5072222;28;20025;-75
2023/03/31 11:10:52;;;;;;;4.38;1.20;;;13.40;92.70;;;;;;5072097;28;20477;-75
2023/03/31 11:13:36;;;;;;;4.18;1.10;;;13.40;93.90;;;;;;5073102;28;20028;-75
2023/03/31 11:16:17;;;;;;;5.82;1.20;;;13.30;92.50;;;;;;5072266;28;20090;-75
2023/03/31 11:19:15;;;;;;;4.32;1.00;;;13.30;93.60;;;;;;5073244;28;20040;-76
2023/03/31 11:21:53;;;;;;;8.10;1.30;;;13.40;94.50;;;;;;5073219;28;20021;-74
2023/03/31 11:24:31;;;;;;;4.40;1.23;;;13.40;94.40;;;;;;5071939;28;20040;-75
2023/03/31 11:27:15;;;;;;;4.30;1.00;;;13.50;94.80;;;;;;5071923;28;20017;-75
2023/03/31 11:30:03;;;;;;;7.32;1.65;;;13.60;93.20;;;;;;5072036;28;20021;-76
2023/03/31 11:32:41;;;;;;;7.03;1.23;;;13.60;93.60;;;;;;5072001;28;20021;-75
2023/03/31 11:35:45;;;;;;;5.18;1.20;;;13.50;92.80;;;;;;5072848;28;20035;-75
2023/03/31 11:38:14;;;;;;;3.53;1.40;;;13.50;92.80;;;;;;5070670;28;20088;-75
2023/03/31 11:41:05;;;;;;;5.38;1.10;;;13.30;92.90;;;;;;5072857;28;20025;-75
2023/03/31 11:43:55;;;;;;;6.82;1.95;;;13.20;93.20;;;;;;5072899;28;20030;-75
2023/03/31 11:46:46;;;;;;;7.35;1.52;;;13.20;93.50;;;;;;5065949;28;20049;-75
2023/03/31 11:49:15;;;;;;;6.05;1.30;;;13.10;93.30;;;;;;5076863;28;20021;-76
2023/03/31 11:52:24;;;;;;;7.82;1.23;;;13.10;94.00;;;;;;5076684;28;20033;-76
2023/03/31 11:55:22;;;;;;;7.47;2.13;;;13.20;94.40;;;;;;5075595;28;20093;-75
2023/03/31 11:57:55;;;;;;;7.65;1.52;;;13.30;93.70;;;;;;5075580;28;20092;-75
2023/03/31 12:00:24;;;;;;;8.45;1.40;;;13.40;93.70;;;;;;5075519;28;20049;-75
2023/03/31 12:03:15;;;;;;;7.35;1.38;;;13.50;94.40;;;;;;5075413;28;20040;-75
2023/03/31 12:05:56;;;;;;;6.43;1.20;;;13.50;93.60;;;;;;5075386;28;20095;-76
2023/03/31 12:08:41;;;;;;;5.03;1.48;;;13.60;94.70;;;;;;5075390;28;20027;-75
2023/03/31 12:11:21;;;;;;;12.25;1.60;;;13.60;93.70;;;;;;5075498;28;20051;-75
2023/03/31 12:14:05;;;;;;;7.15;1.00;;;13.60;93.60;;;;;;5075300;28;20024;-75
2023/03/31 12:16:44;;;;;;;10.68;1.60;;;13.50;93.00;;;;;;5076294;28;20021;-75
2023/03/31 12:19:32;;;;;;;11.38;1.73;;;13.50;93.80;;;;;;5076221;28;20017;-76
2023/03/31 12:22:09;;;;;;;5.35;1.45;;;13.50;93.20;;;;;;5076134;28;20021;-75
2023/03/31 12:24:35;;;;;;;5.85;1.10;;;13.60;92.60;;;;;;5076092;28;20029;-75
2023/03/31 12:27:31;;;;;;;6.10;1.30;;;13.60;91.60;;;;;;5075956;28;20509;-75
2023/03/31 12:30:00;;;;;;;4.47;0.80;;;13.70;91.50;;;;;;5058976;28;20033;-75
2023/03/31 12:32:31;;;;;;;3.67;0.80;;;13.70;90.20;;;;;;5074811;28;20013;-75
2023/03/31 12:34:57;;;;;;;2.50;0.70;;;13.80;90.10;;;;;;5075018;28;20386;-75
2023/03/31 12:37:50;;;;;;;3.35;1.05;;;13.80;90.00;;;;;;5075841;28;20081;-75
2023/03/31 12:40:40;;;;;;;5.80;0.73;;;13.80;90.20;;;;;;5075792;28;20032;-75
2023/03/31 12:43:15;;;;;;;5.28;0.90;;;13.80;88.80;;;;;;5074737;28;20029;-75
2023/03/31 12:45:53;;;;;;;4.57;0.90;;;13.80;88.80;;;;;;5075458;28;20068;-74
2023/03/31 12:48:28;;;;;;;8.05;1.17;;;13.80;88.10;;;;;;5075638;28;20029;-74
2023/03/31 12:51:03;;;;;;;4.63;1.48;;;13.80;87.70;;;;;;5074604;28;20401;-74
2023/03/31 12:54:08;;;;;;;4.20;0.93;;;13.90;89.40;;;;;;5075556;28;20025;-74
2023/03/31 12:56:58;;;;;;;4.53;0.75;;;13.90;89.30;;;;;;5075301;28;20429;-76
2023/03/31 12:59:44;;;;;;;5.18;0.90;;;13.90;89.80;;;;;;5075522;28;20052;-76
2023/03/31 13:02:15;;;;;;;2.63;0.85;;;14.00;89.90;;;;;;5074404;28;20025;-74
2023/03/31 13:04:42;;;;;;;3.95;0.90;;;14.10;88.80;;;;;;5075255;28;20054;-75
2023/03/31 13:07:32;;;;;;;11.05;1.30;;;14.00;86.90;;;;;;5074309;28;20032;-75
2023/03/31 13:10:23;;;;;;;4.35;0.85;;;14.10;87.80;;;;;;5074699;28;20064;-75
2023/03/31 13:13:12;;;;;;;4.82;1.40;;;14.10;87.90;;;;;;5075219;28;20038;-74
2023/03/31 13:15:38;;;;;;;3.17;0.63;;;14.00;86.50;;;;;;5074215;28;20036;-75